sensor_id;sensor_type;location;lat;lon;timestamp;P1;durP1;ratioP1;P2;durP2;ratioP2
16957;SDS011;8595;52.542;11.974;2024-03-08T00:00:00;31.33;;;19.90;;
16957;SDS011;8595;52.542;11.974;2024-03-08T00:02:34;32.10;;;21.03;;
16957;SDS011;8595;52.542;11.974;2024-03-08T00:05:01;30.53;;;18.47;;
16957;SDS011;8595;52.542;11.974;2024-03-08T00:07:28;30.17;;;18.73;;
16957;SDS011;8595;52.542;11.974;2024-03-08T00:09:55;35.70;;;20.57;;
16957;SDS011;8595;52.542;11.974;2024-03-08T00:12:21;34.73;;;19.87;;
16957;SDS011;8595;52.542;11.974;2024-03-08T00:14:50;35.47;;;20.83;;
16957;SDS011;8595;52.542;11.974;2024-03-08T00:17:16;35.03;;;22.10;;
16957;SDS011;8595;52.542;11.974;2024-03-08T00:19:43;36.20;;;20.67;;
16957;SDS011;8595;52.542;11.974;2024-03-08T00:22:09;32.50;;;20.40;;
16957;SDS011;8595;52.542;11.974;2024-03-08T00:24:36;38.97;;;22.07;;
16957;SDS011;8595;52.542;11.974;2024-03-08T00:27:03;33.57;;;20.37;;
16957;SDS011;8595;52.542;11.974;2024-03-08T00:29:31;31.63;;;21.63;;
16957;SDS011;8595;52.542;11.974;2024-03-08T00:32:01;34.07;;;20.03;;
16957;SDS011;8595;52.542;11.974;2024-03-08T00:34:28;34.60;;;21.27;;
16957;SDS011;8595;52.542;11.974;2024-03-08T00:36:55;34.23;;;22.07;;
16957;SDS011;8595;52.542;11.974;2024-03-08T00:39:21;32.60;;;20.43;;
16957;SDS011;8595;52.542;11.974;2024-03-08T00:41:48;34.13;;;21.00;;
16957;SDS011;8595;52.542;11.974;2024-03-08T00:44:14;33.87;;;20.40;;
16957;SDS011;8595;52.542;11.974;2024-03-08T00:46:41;34.70;;;21.80;;
16957;SDS011;8595;52.542;11.974;2024-03-08T00:49:09;37.87;;;22.30;;
16957;SDS011;8595;52.542;11.974;2024-03-08T00:51:37;33.70;;;20.93;;
16957;SDS011;8595;52.542;11.974;2024-03-08T00:54:05;33.97;;;21.47;;
16957;SDS011;8595;52.542;11.974;2024-03-08T00:56:32;34.60;;;21.73;;
16957;SDS011;8595;52.542;11.974;2024-03-08T00:59:00;38.23;;;22.10;;
16957;SDS011;8595;52.542;11.974;2024-03-08T01:01:27;36.97;;;21.57;;
16957;SDS011;8595;52.542;11.974;2024-03-08T01:03:54;33.73;;;20.07;;
16957;SDS011;8595;52.542;11.974;2024-03-08T01:06:23;38.60;;;23.17;;
16957;SDS011;8595;52.542;11.974;2024-03-08T01:08:49;36.80;;;20.80;;
16957;SDS011;8595;52.542;11.974;2024-03-08T01:11:17;34.73;;;22.30;;
16957;SDS011;8595;52.542;11.974;2024-03-08T01:13:44;34.97;;;22.70;;
16957;SDS011;8595;52.542;11.974;2024-03-08T01:16:12;34.90;;;21.40;;
16957;SDS011;8595;52.542;11.974;2024-03-08T01:18:38;40.27;;;21.00;;
16957;SDS011;8595;52.542;11.974;2024-03-08T01:21:05;34.23;;;22.07;;
16957;SDS011;8595;52.542;11.974;2024-03-08T01:23:33;35.43;;;22.37;;
16957;SDS011;8595;52.542;11.974;2024-03-08T01:26:00;36.20;;;22.23;;
16957;SDS011;8595;52.542;11.974;2024-03-08T01:28:27;35.27;;;21.40;;
16957;SDS011;8595;52.542;11.974;2024-03-08T01:30:54;36.37;;;22.13;;
16957;SDS011;8595;52.542;11.974;2024-03-08T01:33:22;35.10;;;21.07;;
16957;SDS011;8595;52.542;11.974;2024-03-08T01:35:50;35.37;;;19.93;;
16957;SDS011;8595;52.542;11.974;2024-03-08T01:38:17;34.70;;;21.07;;
16957;SDS011;8595;52.542;11.974;2024-03-08T01:40:47;35.70;;;22.13;;
16957;SDS011;8595;52.542;11.974;2024-03-08T01:43:18;35.73;;;21.27;;
16957;SDS011;8595;52.542;11.974;2024-03-08T01:45:45;35.90;;;22.70;;
16957;SDS011;8595;52.542;11.974;2024-03-08T01:48:13;39.20;;;23.13;;
16957;SDS011;8595;52.542;11.974;2024-03-08T01:50:40;30.90;;;20.50;;
16957;SDS011;8595;52.542;11.974;2024-03-08T01:53:25;34.80;;;20.43;;
16957;SDS011;8595;52.542;11.974;2024-03-08T01:55:55;41.20;;;22.57;;
16957;SDS011;8595;52.542;11.974;2024-03-08T01:58:23;38.10;;;22.13;;
16957;SDS011;8595;52.542;11.974;2024-03-08T02:00:50;34.70;;;22.27;;
16957;SDS011;8595;52.542;11.974;2024-03-08T02:03:19;37.50;;;23.53;;
16957;SDS011;8595;52.542;11.974;2024-03-08T02:05:46;43.73;;;24.03;;
16957;SDS011;8595;52.542;11.974;2024-03-08T02:08:13;37.17;;;22.13;;
16957;SDS011;8595;52.542;11.974;2024-03-08T02:10:39;38.43;;;22.27;;
16957;SDS011;8595;52.542;11.974;2024-03-08T02:13:11;35.00;;;21.43;;
16957;SDS011;8595;52.542;11.974;2024-03-08T02:15:49;35.93;;;21.63;;
16957;SDS011;8595;52.542;11.974;2024-03-08T02:18:16;39.00;;;23.70;;
16957;SDS011;8595;52.542;11.974;2024-03-08T02:20:44;36.20;;;21.00;;
16957;SDS011;8595;52.542;11.974;2024-03-08T02:23:12;36.93;;;22.70;;
16957;SDS011;8595;52.542;11.974;2024-03-08T02:25:39;34.60;;;22.87;;
16957;SDS011;8595;52.542;11.974;2024-03-08T02:28:06;36.83;;;22.93;;
16957;SDS011;8595;52.542;11.974;2024-03-08T02:30:35;35.27;;;22.00;;
16957;SDS011;8595;52.542;11.974;2024-03-08T02:33:01;37.33;;;22.40;;
16957;SDS011;8595;52.542;11.974;2024-03-08T02:35:28;39.33;;;22.83;;
16957;SDS011;8595;52.542;11.974;2024-03-08T02:37:56;35.87;;;21.73;;
16957;SDS011;8595;52.542;11.974;2024-03-08T02:40:23;40.83;;;23.07;;
16957;SDS011;8595;52.542;11.974;2024-03-08T02:42:50;33.40;;;21.40;;
16957;SDS011;8595;52.542;11.974;2024-03-08T02:45:16;35.50;;;22.37;;
16957;SDS011;8595;52.542;11.974;2024-03-08T02:47:43;37.67;;;22.17;;
16957;SDS011;8595;52.542;11.974;2024-03-08T02:50:10;38.00;;;22.60;;
16957;SDS011;8595;52.542;11.974;2024-03-08T02:52:41;40.80;;;23.20;;
16957;SDS011;8595;52.542;11.974;2024-03-08T02:55:09;38.73;;;23.07;;
16957;SDS011;8595;52.542;11.974;2024-03-08T02:57:40;38.27;;;21.73;;
16957;SDS011;8595;52.542;11.974;2024-03-08T03:00:07;39.00;;;23.77;;
16957;SDS011;8595;52.542;11.974;2024-03-08T03:02:35;38.07;;;20.93;;
16957;SDS011;8595;52.542;11.974;2024-03-08T03:05:02;36.10;;;21.43;;
16957;SDS011;8595;52.542;11.974;2024-03-08T03:07:31;40.63;;;23.60;;
16957;SDS011;8595;52.542;11.974;2024-03-08T03:09:58;41.17;;;24.70;;
16957;SDS011;8595;52.542;11.974;2024-03-08T03:12:26;41.80;;;23.80;;
16957;SDS011;8595;52.542;11.974;2024-03-08T03:14:53;38.03;;;20.50;;
16957;SDS011;8595;52.542;11.974;2024-03-08T03:17:21;41.67;;;23.60;;
16957;SDS011;8595;52.542;11.974;2024-03-08T03:19:47;38.80;;;23.10;;
16957;SDS011;8595;52.542;11.974;2024-03-08T03:22:14;38.83;;;21.40;;
16957;SDS011;8595;52.542;11.974;2024-03-08T03:24:40;39.07;;;23.27;;
16957;SDS011;8595;52.542;11.974;2024-03-08T03:27:07;33.97;;;20.70;;
16957;SDS011;8595;52.542;11.974;2024-03-08T03:29:38;40.93;;;22.97;;
16957;SDS011;8595;52.542;11.974;2024-03-08T03:32:04;39.93;;;23.30;;
16957;SDS011;8595;52.542;11.974;2024-03-08T03:34:32;43.63;;;23.63;;
16957;SDS011;8595;52.542;11.974;2024-03-08T03:37:01;40.33;;;22.97;;
16957;SDS011;8595;52.542;11.974;2024-03-08T03:39:27;37.23;;;22.13;;
16957;SDS011;8595;52.542;11.974;2024-03-08T03:41:56;41.73;;;23.30;;
16957;SDS011;8595;52.542;11.974;2024-03-08T03:44:23;38.13;;;23.40;;
16957;SDS011;8595;52.542;11.974;2024-03-08T03:46:51;41.03;;;22.27;;
16957;SDS011;8595;52.542;11.974;2024-03-08T03:49:18;43.90;;;25.30;;
16957;SDS011;8595;52.542;11.974;2024-03-08T03:51:44;41.67;;;23.23;;
16957;SDS011;8595;52.542;11.974;2024-03-08T03:54:11;38.43;;;21.90;;
16957;SDS011;8595;52.542;11.974;2024-03-08T03:56:38;38.30;;;23.40;;
16957;SDS011;8595;52.542;11.974;2024-03-08T03:59:05;40.43;;;23.63;;
16957;SDS011;8595;52.542;11.974;2024-03-08T04:01:32;38.60;;;24.63;;
16957;SDS011;8595;52.542;11.974;2024-03-08T04:04:01;44.13;;;24.57;;
16957;SDS011;8595;52.542;11.974;2024-03-08T04:06:30;42.87;;;24.33;;
16957;SDS011;8595;52.542;11.974;2024-03-08T04:08:56;38.77;;;24.07;;
16957;SDS011;8595;52.542;11.974;2024-03-08T04:11:23;40.00;;;24.33;;
16957;SDS011;8595;52.542;11.974;2024-03-08T04:13:50;42.63;;;22.50;;
16957;SDS011;8595;52.542;11.974;2024-03-08T04:16:17;38.67;;;23.47;;
16957;SDS011;8595;52.542;11.974;2024-03-08T04:18:44;40.97;;;24.97;;
16957;SDS011;8595;52.542;11.974;2024-03-08T04:21:12;39.37;;;22.70;;
16957;SDS011;8595;52.542;11.974;2024-03-08T04:23:38;41.03;;;23.03;;
16957;SDS011;8595;52.542;11.974;2024-03-08T04:26:05;45.07;;;25.43;;
16957;SDS011;8595;52.542;11.974;2024-03-08T04:28:34;44.93;;;24.60;;
16957;SDS011;8595;52.542;11.974;2024-03-08T04:31:02;43.03;;;25.50;;
16957;SDS011;8595;52.542;11.974;2024-03-08T04:33:29;40.87;;;22.77;;
16957;SDS011;8595;52.542;11.974;2024-03-08T04:35:59;49.53;;;24.90;;
16957;SDS011;8595;52.542;11.974;2024-03-08T04:38:27;49.20;;;26.47;;
16957;SDS011;8595;52.542;11.974;2024-03-08T04:40:55;46.43;;;26.07;;
16957;SDS011;8595;52.542;11.974;2024-03-08T04:43:22;37.10;;;23.97;;
16957;SDS011;8595;52.542;11.974;2024-03-08T04:45:51;44.60;;;24.13;;
16957;SDS011;8595;52.542;11.974;2024-03-08T04:48:18;40.00;;;23.83;;
16957;SDS011;8595;52.542;11.974;2024-03-08T04:50:45;43.30;;;24.17;;
16957;SDS011;8595;52.542;11.974;2024-03-08T04:53:12;44.80;;;26.93;;
16957;SDS011;8595;52.542;11.974;2024-03-08T04:55:40;43.10;;;24.57;;
16957;SDS011;8595;52.542;11.974;2024-03-08T04:58:07;45.00;;;24.90;;
16957;SDS011;8595;52.542;11.974;2024-03-08T05:00:34;50.93;;;25.67;;
16957;SDS011;8595;52.542;11.974;2024-03-08T05:03:01;40.47;;;24.20;;
16957;SDS011;8595;52.542;11.974;2024-03-08T05:05:28;43.17;;;24.43;;
16957;SDS011;8595;52.542;11.974;2024-03-08T05:07:55;45.23;;;27.20;;
16957;SDS011;8595;52.542;11.974;2024-03-08T05:10:22;41.47;;;23.27;;
16957;SDS011;8595;52.542;11.974;2024-03-08T05:12:49;45.77;;;24.43;;
16957;SDS011;8595;52.542;11.974;2024-03-08T05:15:17;46.57;;;24.60;;
16957;SDS011;8595;52.542;11.974;2024-03-08T05:17:45;43.67;;;25.27;;
16957;SDS011;8595;52.542;11.974;2024-03-08T05:20:12;46.63;;;27.23;;
16957;SDS011;8595;52.542;11.974;2024-03-08T05:22:39;44.57;;;25.23;;
16957;SDS011;8595;52.542;11.974;2024-03-08T05:25:06;39.73;;;24.10;;
16957;SDS011;8595;52.542;11.974;2024-03-08T05:27:33;43.37;;;23.27;;
16957;SDS011;8595;52.542;11.974;2024-03-08T05:30:02;42.87;;;26.97;;
16957;SDS011;8595;52.542;11.974;2024-03-08T05:32:30;43.90;;;25.80;;
16957;SDS011;8595;52.542;11.974;2024-03-08T05:34:56;45.90;;;26.37;;
16957;SDS011;8595;52.542;11.974;2024-03-08T05:37:23;45.20;;;25.10;;
16957;SDS011;8595;52.542;11.974;2024-03-08T05:39:49;44.73;;;24.63;;
16957;SDS011;8595;52.542;11.974;2024-03-08T05:42:16;41.67;;;24.23;;
16957;SDS011;8595;52.542;11.974;2024-03-08T05:44:43;45.97;;;25.47;;
16957;SDS011;8595;52.542;11.974;2024-03-08T05:47:11;42.23;;;25.50;;
16957;SDS011;8595;52.542;11.974;2024-03-08T05:49:37;48.53;;;26.13;;
16957;SDS011;8595;52.542;11.974;2024-03-08T05:52:04;41.03;;;24.60;;
16957;SDS011;8595;52.542;11.974;2024-03-08T05:54:31;41.27;;;25.27;;
16957;SDS011;8595;52.542;11.974;2024-03-08T05:56:58;44.17;;;25.73;;
16957;SDS011;8595;52.542;11.974;2024-03-08T05:59:25;42.23;;;24.90;;
16957;SDS011;8595;52.542;11.974;2024-03-08T06:01:52;46.77;;;25.80;;
16957;SDS011;8595;52.542;11.974;2024-03-08T06:04:20;45.93;;;24.77;;
16957;SDS011;8595;52.542;11.974;2024-03-08T06:06:47;45.57;;;25.33;;
16957;SDS011;8595;52.542;11.974;2024-03-08T06:09:16;46.77;;;25.47;;
16957;SDS011;8595;52.542;11.974;2024-03-08T06:11:48;41.23;;;23.80;;
16957;SDS011;8595;52.542;11.974;2024-03-08T06:14:14;43.33;;;25.17;;
16957;SDS011;8595;52.542;11.974;2024-03-08T06:16:43;42.87;;;25.47;;
16957;SDS011;8595;52.542;11.974;2024-03-08T06:19:10;44.43;;;27.20;;
16957;SDS011;8595;52.542;11.974;2024-03-08T06:21:38;37.80;;;22.07;;
16957;SDS011;8595;52.542;11.974;2024-03-08T06:24:06;44.40;;;24.50;;
16957;SDS011;8595;52.542;11.974;2024-03-08T06:26:32;44.37;;;26.10;;
16957;SDS011;8595;52.542;11.974;2024-03-08T06:28:59;41.80;;;25.10;;
16957;SDS011;8595;52.542;11.974;2024-03-08T06:31:25;46.00;;;23.70;;
16957;SDS011;8595;52.542;11.974;2024-03-08T06:33:52;44.77;;;24.50;;
16957;SDS011;8595;52.542;11.974;2024-03-08T06:36:20;48.73;;;25.10;;
16957;SDS011;8595;52.542;11.974;2024-03-08T06:38:48;47.07;;;26.47;;
16957;SDS011;8595;52.542;11.974;2024-03-08T06:41:15;39.90;;;24.50;;
16957;SDS011;8595;52.542;11.974;2024-03-08T06:43:42;42.93;;;24.20;;
16957;SDS011;8595;52.542;11.974;2024-03-08T06:46:09;49.87;;;26.13;;
16957;SDS011;8595;52.542;11.974;2024-03-08T06:48:37;41.13;;;23.23;;
16957;SDS011;8595;52.542;11.974;2024-03-08T06:51:04;41.30;;;25.27;;
16957;SDS011;8595;52.542;11.974;2024-03-08T06:53:31;45.60;;;25.73;;
16957;SDS011;8595;52.542;11.974;2024-03-08T06:56:01;44.77;;;26.10;;
16957;SDS011;8595;52.542;11.974;2024-03-08T06:58:28;44.00;;;24.57;;
16957;SDS011;8595;52.542;11.974;2024-03-08T07:00:54;41.73;;;24.83;;
16957;SDS011;8595;52.542;11.974;2024-03-08T07:03:23;52.57;;;25.63;;
16957;SDS011;8595;52.542;11.974;2024-03-08T07:05:51;48.37;;;27.37;;
16957;SDS011;8595;52.542;11.974;2024-03-08T07:08:18;45.37;;;25.77;;
16957;SDS011;8595;52.542;11.974;2024-03-08T07:10:47;41.87;;;24.27;;
16957;SDS011;8595;52.542;11.974;2024-03-08T07:13:15;47.17;;;27.20;;
16957;SDS011;8595;52.542;11.974;2024-03-08T07:15:43;51.17;;;27.37;;
16957;SDS011;8595;52.542;11.974;2024-03-08T07:18:09;45.97;;;25.67;;
16957;SDS011;8595;52.542;11.974;2024-03-08T07:20:39;41.07;;;25.53;;
16957;SDS011;8595;52.542;11.974;2024-03-08T07:23:07;44.83;;;26.17;;
16957;SDS011;8595;52.542;11.974;2024-03-08T07:25:35;43.80;;;25.73;;
16957;SDS011;8595;52.542;11.974;2024-03-08T07:28:04;47.80;;;27.53;;
16957;SDS011;8595;52.542;11.974;2024-03-08T07:30:32;45.07;;;27.07;;
16957;SDS011;8595;52.542;11.974;2024-03-08T07:33:22;44.33;;;26.60;;
16957;SDS011;8595;52.542;11.974;2024-03-08T07:35:49;43.67;;;26.70;;
16957;SDS011;8595;52.542;11.974;2024-03-08T07:38:15;51.33;;;28.57;;
16957;SDS011;8595;52.542;11.974;2024-03-08T07:40:42;44.37;;;27.80;;
16957;SDS011;8595;52.542;11.974;2024-03-08T07:43:10;42.65;;;27.75;;
16957;SDS011;8595;52.542;11.974;2024-03-08T07:45:38;41.35;;;27.95;;
16957;SDS011;8595;52.542;11.974;2024-03-08T07:48:06;40.70;;;25.40;;
16957;SDS011;8595;52.542;11.974;2024-03-08T07:50:34;40.92;;;26.88;;
16957;SDS011;8595;52.542;11.974;2024-03-08T07:53:02;42.60;;;25.85;;
16957;SDS011;8595;52.542;11.974;2024-03-08T07:55:31;41.97;;;24.55;;
16957;SDS011;8595;52.542;11.974;2024-03-08T07:57:58;45.30;;;28.35;;
16957;SDS011;8595;52.542;11.974;2024-03-08T08:00:24;41.17;;;26.77;;
16957;SDS011;8595;52.542;11.974;2024-03-08T08:02:54;41.72;;;26.90;;
16957;SDS011;8595;52.542;11.974;2024-03-08T08:05:21;39.58;;;25.45;;
16957;SDS011;8595;52.542;11.974;2024-03-08T08:07:48;40.72;;;28.08;;
16957;SDS011;8595;52.542;11.974;2024-03-08T08:10:17;42.35;;;27.88;;
16957;SDS011;8595;52.542;11.974;2024-03-08T08:12:46;38.38;;;26.65;;
16957;SDS011;8595;52.542;11.974;2024-03-08T08:15:13;39.53;;;26.45;;
16957;SDS011;8595;52.542;11.974;2024-03-08T08:17:40;38.92;;;27.30;;
16957;SDS011;8595;52.542;11.974;2024-03-08T08:20:09;42.45;;;28.25;;
16957;SDS011;8595;52.542;11.974;2024-03-08T08:22:37;40.88;;;27.92;;
16957;SDS011;8595;52.542;11.974;2024-03-08T08:25:04;38.17;;;27.55;;
16957;SDS011;8595;52.542;11.974;2024-03-08T08:27:31;38.17;;;27.02;;
16957;SDS011;8595;52.542;11.974;2024-03-08T08:29:58;42.00;;;27.10;;
16957;SDS011;8595;52.542;11.974;2024-03-08T08:32:25;36.20;;;26.92;;
16957;SDS011;8595;52.542;11.974;2024-03-08T08:34:51;43.13;;;26.95;;
16957;SDS011;8595;52.542;11.974;2024-03-08T08:37:19;36.60;;;25.65;;
16957;SDS011;8595;52.542;11.974;2024-03-08T08:39:46;37.95;;;27.33;;
16957;SDS011;8595;52.542;11.974;2024-03-08T08:42:16;36.85;;;26.08;;
16957;SDS011;8595;52.542;11.974;2024-03-08T08:44:43;40.35;;;27.95;;
16957;SDS011;8595;52.542;11.974;2024-03-08T08:47:11;35.88;;;25.73;;
16957;SDS011;8595;52.542;11.974;2024-03-08T08:49:38;36.90;;;27.17;;
16957;SDS011;8595;52.542;11.974;2024-03-08T08:52:04;35.53;;;25.35;;
16957;SDS011;8595;52.542;11.974;2024-03-08T08:54:33;36.38;;;28.05;;
16957;SDS011;8595;52.542;11.974;2024-03-08T08:57:01;32.72;;;24.50;;
16957;SDS011;8595;52.542;11.974;2024-03-08T08:59:32;36.67;;;25.73;;
16957;SDS011;8595;52.542;11.974;2024-03-08T09:02:00;34.72;;;24.65;;
16957;SDS011;8595;52.542;11.974;2024-03-08T09:04:28;36.70;;;26.63;;
16957;SDS011;8595;52.542;11.974;2024-03-08T09:06:55;37.65;;;24.52;;
16957;SDS011;8595;52.542;11.974;2024-03-08T09:09:22;34.38;;;25.65;;
16957;SDS011;8595;52.542;11.974;2024-03-08T09:11:51;32.05;;;24.42;;
16957;SDS011;8595;52.542;11.974;2024-03-08T09:14:19;31.40;;;22.98;;
16957;SDS011;8595;52.542;11.974;2024-03-08T09:16:46;37.28;;;22.50;;
16957;SDS011;8595;52.542;11.974;2024-03-08T09:19:12;33.55;;;24.25;;
16957;SDS011;8595;52.542;11.974;2024-03-08T09:21:40;33.88;;;24.90;;
16957;SDS011;8595;52.542;11.974;2024-03-08T09:24:06;37.95;;;27.17;;
16957;SDS011;8595;52.542;11.974;2024-03-08T09:26:33;31.83;;;24.30;;
16957;SDS011;8595;52.542;11.974;2024-03-08T09:29:01;32.47;;;23.98;;
16957;SDS011;8595;52.542;11.974;2024-03-08T09:31:28;31.85;;;23.77;;
16957;SDS011;8595;52.542;11.974;2024-03-08T09:33:55;28.95;;;23.23;;
16957;SDS011;8595;52.542;11.974;2024-03-08T09:36:22;29.17;;;22.45;;
16957;SDS011;8595;52.542;11.974;2024-03-08T09:38:48;31.33;;;22.38;;
16957;SDS011;8595;52.542;11.974;2024-03-08T09:41:15;28.85;;;22.75;;
16957;SDS011;8595;52.542;11.974;2024-03-08T09:43:42;32.00;;;22.15;;
16957;SDS011;8595;52.542;11.974;2024-03-08T09:46:11;28.52;;;21.77;;
16957;SDS011;8595;52.542;11.974;2024-03-08T09:48:40;26.92;;;20.75;;
16957;SDS011;8595;52.542;11.974;2024-03-08T09:51:07;29.20;;;21.80;;
16957;SDS011;8595;52.542;11.974;2024-03-08T09:53:38;28.65;;;21.00;;
16957;SDS011;8595;52.542;11.974;2024-03-08T09:56:07;29.90;;;21.75;;
16957;SDS011;8595;52.542;11.974;2024-03-08T09:58:33;28.30;;;22.05;;
16957;SDS011;8595;52.542;11.974;2024-03-08T10:01:20;27.73;;;21.70;;
16957;SDS011;8595;52.542;11.974;2024-03-08T10:03:47;30.35;;;21.38;;
16957;SDS011;8595;52.542;11.974;2024-03-08T10:06:15;29.45;;;21.30;;
16957;SDS011;8595;52.542;11.974;2024-03-08T10:08:42;26.13;;;20.42;;
16957;SDS011;8595;52.542;11.974;2024-03-08T10:11:09;26.33;;;21.65;;
16957;SDS011;8595;52.542;11.974;2024-03-08T10:13:36;26.63;;;21.33;;
16957;SDS011;8595;52.542;11.974;2024-03-08T10:16:06;26.90;;;20.30;;
16957;SDS011;8595;52.542;11.974;2024-03-08T10:18:35;25.52;;;21.08;;
16957;SDS011;8595;52.542;11.974;2024-03-08T10:21:02;31.23;;;20.48;;
16957;SDS011;8595;52.542;11.974;2024-03-08T10:23:30;27.02;;;22.65;;
16957;SDS011;8595;52.542;11.974;2024-03-08T10:26:08;25.27;;;19.90;;
16957;SDS011;8595;52.542;11.974;2024-03-08T10:28:35;25.60;;;20.08;;
16957;SDS011;8595;52.542;11.974;2024-03-08T10:31:02;24.25;;;19.45;;
16957;SDS011;8595;52.542;11.974;2024-03-08T10:33:30;25.17;;;20.35;;
16957;SDS011;8595;52.542;11.974;2024-03-08T10:35:59;24.92;;;19.40;;
16957;SDS011;8595;52.542;11.974;2024-03-08T10:38:28;29.75;;;20.38;;
16957;SDS011;8595;52.542;11.974;2024-03-08T10:40:58;27.73;;;21.30;;
16957;SDS011;8595;52.542;11.974;2024-03-08T10:43:25;25.75;;;21.60;;
16957;SDS011;8595;52.542;11.974;2024-03-08T10:45:58;29.80;;;22.48;;
16957;SDS011;8595;52.542;11.974;2024-03-08T10:48:34;25.45;;;20.50;;
16957;SDS011;8595;52.542;11.974;2024-03-08T10:51:09;29.15;;;20.55;;
16957;SDS011;8595;52.542;11.974;2024-03-08T10:53:37;27.77;;;21.25;;
16957;SDS011;8595;52.542;11.974;2024-03-08T10:56:06;25.88;;;19.50;;
16957;SDS011;8595;52.542;11.974;2024-03-08T10:58:34;28.13;;;19.42;;
16957;SDS011;8595;52.542;11.974;2024-03-08T11:01:03;26.88;;;22.33;;
16957;SDS011;8595;52.542;11.974;2024-03-08T11:03:44;29.00;;;23.88;;
16957;SDS011;8595;52.542;11.974;2024-03-08T11:06:15;29.73;;;23.77;;
16957;SDS011;8595;52.542;11.974;2024-03-08T11:08:43;27.05;;;21.55;;
16957;SDS011;8595;52.542;11.974;2024-03-08T11:11:23;25.77;;;19.95;;
16957;SDS011;8595;52.542;11.974;2024-03-08T11:13:52;28.92;;;21.75;;
16957;SDS011;8595;52.542;11.974;2024-03-08T11:19:07;28.77;;;22.73;;
16957;SDS011;8595;52.542;11.974;2024-03-08T11:21:57;27.85;;;21.23;;
16957;SDS011;8595;52.542;11.974;2024-03-08T11:24:25;22.92;;;18.83;;
16957;SDS011;8595;52.542;11.974;2024-03-08T11:26:56;25.80;;;20.42;;
16957;SDS011;8595;52.542;11.974;2024-03-08T11:29:35;22.58;;;17.23;;
16957;SDS011;8595;52.542;11.974;2024-03-08T11:32:05;24.92;;;19.60;;
16957;SDS011;8595;52.542;11.974;2024-03-08T11:34:34;23.27;;;18.15;;
16957;SDS011;8595;52.542;11.974;2024-03-08T11:37:04;24.33;;;18.10;;
16957;SDS011;8595;52.542;11.974;2024-03-08T11:39:34;24.52;;;20.00;;
16957;SDS011;8595;52.542;11.974;2024-03-08T11:42:02;22.77;;;17.48;;
16957;SDS011;8595;52.542;11.974;2024-03-08T11:44:29;23.25;;;18.92;;
16957;SDS011;8595;52.542;11.974;2024-03-08T11:46:56;23.42;;;17.30;;
16957;SDS011;8595;52.542;11.974;2024-03-08T11:49:23;26.25;;;20.80;;
16957;SDS011;8595;52.542;11.974;2024-03-08T11:51:51;29.17;;;19.70;;
16957;SDS011;8595;52.542;11.974;2024-03-08T11:54:20;25.50;;;20.70;;
16957;SDS011;8595;52.542;11.974;2024-03-08T11:56:47;23.25;;;18.52;;
16957;SDS011;8595;52.542;11.974;2024-03-08T11:59:17;22.60;;;18.95;;
16957;SDS011;8595;52.542;11.974;2024-03-08T12:01:44;23.45;;;20.63;;
16957;SDS011;8595;52.542;11.974;2024-03-08T12:04:29;24.20;;;18.90;;
16957;SDS011;8595;52.542;11.974;2024-03-08T12:06:58;23.65;;;19.88;;
16957;SDS011;8595;52.542;11.974;2024-03-08T12:09:28;27.25;;;20.75;;
16957;SDS011;8595;52.542;11.974;2024-03-08T12:11:55;24.70;;;20.38;;
16957;SDS011;8595;52.542;11.974;2024-03-08T12:14:22;25.27;;;21.10;;
16957;SDS011;8595;52.542;11.974;2024-03-08T12:16:50;26.60;;;20.92;;
16957;SDS011;8595;52.542;11.974;2024-03-08T12:19:17;25.00;;;19.73;;
16957;SDS011;8595;52.542;11.974;2024-03-08T12:21:44;24.60;;;19.95;;
16957;SDS011;8595;52.542;11.974;2024-03-08T12:24:14;23.20;;;17.85;;
16957;SDS011;8595;52.542;11.974;2024-03-08T12:26:45;25.92;;;20.10;;
16957;SDS011;8595;52.542;11.974;2024-03-08T12:29:14;24.30;;;19.42;;
16957;SDS011;8595;52.542;11.974;2024-03-08T12:31:42;26.00;;;21.27;;
16957;SDS011;8595;52.542;11.974;2024-03-08T12:34:09;22.92;;;19.00;;
16957;SDS011;8595;52.542;11.974;2024-03-08T12:36:37;27.52;;;21.45;;
16957;SDS011;8595;52.542;11.974;2024-03-08T12:39:04;25.80;;;20.05;;
16957;SDS011;8595;52.542;11.974;2024-03-08T12:41:39;26.70;;;20.65;;
16957;SDS011;8595;52.542;11.974;2024-03-08T12:44:07;26.20;;;20.00;;
16957;SDS011;8595;52.542;11.974;2024-03-08T12:46:36;23.83;;;20.05;;
16957;SDS011;8595;52.542;11.974;2024-03-08T12:49:05;23.77;;;21.15;;
16957;SDS011;8595;52.542;11.974;2024-03-08T12:51:33;25.73;;;18.45;;
16957;SDS011;8595;52.542;11.974;2024-03-08T12:54:00;27.50;;;20.63;;
16957;SDS011;8595;52.542;11.974;2024-03-08T12:56:30;29.45;;;20.90;;
16957;SDS011;8595;52.542;11.974;2024-03-08T12:58:58;28.67;;;20.75;;
16957;SDS011;8595;52.542;11.974;2024-03-08T13:01:27;33.65;;;22.13;;
16957;SDS011;8595;52.542;11.974;2024-03-08T13:03:53;37.38;;;23.77;;
16957;SDS011;8595;52.542;11.974;2024-03-08T13:06:21;25.63;;;19.67;;
16957;SDS011;8595;52.542;11.974;2024-03-08T13:08:49;23.58;;;19.23;;
16957;SDS011;8595;52.542;11.974;2024-03-08T13:11:16;36.08;;;26.13;;
16957;SDS011;8595;52.542;11.974;2024-03-08T13:13:44;32.30;;;22.02;;
16957;SDS011;8595;52.542;11.974;2024-03-08T13:16:11;32.78;;;22.92;;
16957;SDS011;8595;52.542;11.974;2024-03-08T13:18:41;28.85;;;20.92;;
16957;SDS011;8595;52.542;11.974;2024-03-08T13:21:08;24.73;;;21.05;;
16957;SDS011;8595;52.542;11.974;2024-03-08T13:23:36;26.95;;;20.58;;
16957;SDS011;8595;52.542;11.974;2024-03-08T13:26:05;27.67;;;21.13;;
16957;SDS011;8595;52.542;11.974;2024-03-08T13:28:31;27.48;;;21.58;;
16957;SDS011;8595;52.542;11.974;2024-03-08T13:31:01;24.20;;;19.65;;
16957;SDS011;8595;52.542;11.974;2024-03-08T13:33:31;24.30;;;20.55;;
16957;SDS011;8595;52.542;11.974;2024-03-08T13:36:02;26.23;;;19.70;;
16957;SDS011;8595;52.542;11.974;2024-03-08T13:38:31;25.15;;;20.33;;
16957;SDS011;8595;52.542;11.974;2024-03-08T13:40:59;26.27;;;18.83;;
16957;SDS011;8595;52.542;11.974;2024-03-08T13:43:26;24.52;;;20.02;;
16957;SDS011;8595;52.542;11.974;2024-03-08T13:45:54;25.13;;;20.70;;
16957;SDS011;8595;52.542;11.974;2024-03-08T13:48:20;28.17;;;22.50;;
16957;SDS011;8595;52.542;11.974;2024-03-08T13:50:47;24.50;;;19.58;;
16957;SDS011;8595;52.542;11.974;2024-03-08T13:53:16;25.90;;;20.08;;
16957;SDS011;8595;52.542;11.974;2024-03-08T13:55:43;25.92;;;19.95;;
16957;SDS011;8595;52.542;11.974;2024-03-08T13:58:10;27.02;;;20.33;;
16957;SDS011;8595;52.542;11.974;2024-03-08T14:00:39;25.33;;;19.77;;
16957;SDS011;8595;52.542;11.974;2024-03-08T14:03:08;27.90;;;21.17;;
16957;SDS011;8595;52.542;11.974;2024-03-08T14:05:35;24.38;;;18.30;;
16957;SDS011;8595;52.542;11.974;2024-03-08T14:08:04;25.10;;;19.80;;
16957;SDS011;8595;52.542;11.974;2024-03-08T14:10:34;26.00;;;20.58;;
16957;SDS011;8595;52.542;11.974;2024-03-08T14:13:02;22.85;;;17.33;;
16957;SDS011;8595;52.542;11.974;2024-03-08T14:15:41;23.85;;;17.45;;
16957;SDS011;8595;52.542;11.974;2024-03-08T14:18:11;21.65;;;17.63;;
16957;SDS011;8595;52.542;11.974;2024-03-08T14:20:38;22.02;;;17.67;;
16957;SDS011;8595;52.542;11.974;2024-03-08T14:23:04;25.98;;;19.05;;
16957;SDS011;8595;52.542;11.974;2024-03-08T14:25:34;25.25;;;19.52;;
16957;SDS011;8595;52.542;11.974;2024-03-08T14:28:01;23.77;;;18.20;;